sensor_id;sensor_type;location;lat;lon;timestamp;pressure;altitude;pressure_sealevel;temperature;humidity
4410;BME280;2218;51.408;7.208;2023-02-03T00:02:08;100540.50;;;18.80;44.58
4410;BME280;2218;51.408;7.208;2023-02-03T00:04:35;100529.13;;;18.80;44.21
4410;BME280;2218;51.408;7.208;2023-02-03T00:07:03;100523.88;;;18.80;44.56
4410;BME280;2218;51.408;7.208;2023-02-03T00:09:30;100520.34;;;18.79;44.32
4410;BME280;2218;51.408;7.208;2023-02-03T00:11:58;100528.25;;;18.79;44.42
4410;BME280;2218;51.408;7.208;2023-02-03T00:14:25;100537.09;;;18.78;44.50
4410;BME280;2218;51.408;7.208;2023-02-03T00:16:52;100523.94;;;18.78;44.36
4410;BME280;2218;51.408;7.208;2023-02-03T00:19:19;100527.41;;;18.79;44.25
4410;BME280;2218;51.408;7.208;2023-02-03T00:21:46;100520.53;;;18.76;44.18
4410;BME280;2218;51.408;7.208;2023-02-03T00:24:12;100529.28;;;18.77;44.47
4410;BME280;2218;51.408;7.208;2023-02-03T00:26:42;100520.53;;;18.76;44.67
4410;BME280;2218;51.408;7.208;2023-02-03T00:29:11;100515.28;;;18.76;44.40
4410;BME280;2218;51.408;7.208;2023-02-03T00:31:39;100511.78;;;18.76;44.24
4410;BME280;2218;51.408;7.208;2023-02-03T00:34:06;100518.84;;;18.75;44.65
4410;BME280;2218;51.408;7.208;2023-02-03T00:36:34;100510.09;;;18.75;44.31
4410;BME280;2218;51.408;7.208;2023-02-03T00:39:01;100512.78;;;18.73;44.23
4410;BME280;2218;51.408;7.208;2023-02-03T00:41:30;100517.13;;;18.74;44.46
4410;BME280;2218;51.408;7.208;2023-02-03T00:43:57;100510.16;;;18.73;44.18
4410;BME280;2218;51.408;7.208;2023-02-03T00:46:25;100509.22;;;18.74;44.40
4410;BME280;2218;51.408;7.208;2023-02-03T00:48:52;100517.22;;;18.73;44.36
4410;BME280;2218;51.408;7.208;2023-02-03T00:51:19;100516.38;;;18.72;44.57
4410;BME280;2218;51.408;7.208;2023-02-03T00:53:47;100522.56;;;18.71;44.66
4410;BME280;2218;51.408;7.208;2023-02-03T00:56:14;100512.03;;;18.71;44.46
4410;BME280;2218;51.408;7.208;2023-02-03T00:58:41;100512.97;;;18.70;44.34
4410;BME280;2218;51.408;7.208;2023-02-03T01:01:08;100516.47;;;18.71;44.58
4410;BME280;2218;51.408;7.208;2023-02-03T01:03:36;100540.16;;;18.71;44.50
4410;BME280;2218;51.408;7.208;2023-02-03T01:06:12;100550.75;;;18.69;44.61
4410;BME280;2218;51.408;7.208;2023-02-03T01:08:41;100549.84;;;18.70;44.39
4410;BME280;2218;51.408;7.208;2023-02-03T01:11:10;100546.34;;;18.70;44.41
4410;BME280;2218;51.408;7.208;2023-02-03T01:13:39;100556.00;;;18.69;44.34
4410;BME280;2218;51.408;7.208;2023-02-03T01:16:08;100556.94;;;18.68;44.59
4410;BME280;2218;51.408;7.208;2023-02-03T01:18:37;100572.75;;;18.68;44.60
4410;BME280;2218;51.408;7.208;2023-02-03T01:21:06;100584.19;;;18.67;44.66
4410;BME280;2218;51.408;7.208;2023-02-03T01:23:34;100584.19;;;18.67;44.41
4410;BME280;2218;51.408;7.208;2023-02-03T01:26:03;100581.56;;;18.67;44.49
4410;BME280;2218;51.408;7.208;2023-02-03T01:28:30;100573.66;;;18.67;44.71
4410;BME280;2218;51.408;7.208;2023-02-03T01:31:07;100566.69;;;18.66;44.47
4410;BME280;2218;51.408;7.208;2023-02-03T01:33:36;100567.63;;;18.65;44.42
4410;BME280;2218;51.408;7.208;2023-02-03T01:36:06;100560.63;;;18.64;44.72
4410;BME280;2218;51.408;7.208;2023-02-03T01:38:35;100568.53;;;18.64;44.31
4410;BME280;2218;51.408;7.208;2023-02-03T01:41:05;100569.47;;;18.63;44.42
4410;BME280;2218;51.408;7.208;2023-02-03T01:43:35;100565.91;;;18.64;44.33
4410;BME280;2218;51.408;7.208;2023-02-03T01:46:17;100569.47;;;18.63;44.37
4410;BME280;2218;51.408;7.208;2023-02-03T01:48:47;100569.47;;;18.63;44.64
4410;BME280;2218;51.408;7.208;2023-02-03T01:51:17;100559.88;;;18.62;44.51
4410;BME280;2218;51.408;7.208;2023-02-03T01:53:45;100558.94;;;18.63;44.57
4410;BME280;2218;51.408;7.208;2023-02-03T01:56:12;100559.88;;;18.62;44.34
4410;BME280;2218;51.408;7.208;2023-02-03T01:58:41;100558.19;;;18.61;44.40
4410;BME280;2218;51.408;7.208;2023-02-03T02:01:09;100555.56;;;18.61;44.25
4410;BME280;2218;51.408;7.208;2023-02-03T02:03:40;100556.50;;;18.60;44.37
4410;BME280;2218;51.408;7.208;2023-02-03T02:06:13;100566.09;;;18.61;44.58
4410;BME280;2218;51.408;7.208;2023-02-03T02:08:44;100561.75;;;18.60;44.40
4410;BME280;2218;51.408;7.208;2023-02-03T02:11:12;100560.88;;;18.59;44.59
4410;BME280;2218;51.408;7.208;2023-02-03T02:13:42;100542.47;;;18.59;44.35
4410;BME280;2218;51.408;7.208;2023-02-03T02:16:17;100541.59;;;18.59;44.31
4410;BME280;2218;51.408;7.208;2023-02-03T02:19:15;100539.81;;;18.59;44.74
4410;BME280;2218;51.408;7.208;2023-02-03T02:22:05;100541.59;;;18.59;44.49
4410;BME280;2218;51.408;7.208;2023-02-03T02:28:56;100523.28;;;18.57;44.44
4410;BME280;2218;51.408;7.208;2023-02-03T02:31:51;100510.09;;;18.57;44.54
4410;BME280;2218;51.408;7.208;2023-02-03T02:34:38;100511.91;;;18.57;44.40
4410;BME280;2218;51.408;7.208;2023-02-03T02:37:25;100509.25;;;18.57;44.57
4410;BME280;2218;51.408;7.208;2023-02-03T02:40:09;100521.56;;;18.56;44.34
4410;BME280;2218;51.408;7.208;2023-02-03T02:42:56;100503.16;;;18.56;44.32
4410;BME280;2218;51.408;7.208;2023-02-03T02:45:30;100493.56;;;18.55;44.49
4410;BME280;2218;51.408;7.208;2023-02-03T02:48:07;100492.72;;;18.55;44.34
4410;BME280;2218;51.408;7.208;2023-02-03T02:50:42;100497.09;;;18.54;44.69
4410;BME280;2218;51.408;7.208;2023-02-03T02:53:12;100504.94;;;18.56;44.44
4410;BME280;2218;51.408;7.208;2023-02-03T02:55:43;100483.88;;;18.56;44.55
4410;BME280;2218;51.408;7.208;2023-02-03T02:58:14;100474.19;;;18.56;44.49
4410;BME280;2218;51.408;7.208;2023-02-03T03:00:44;100475.88;;;18.57;44.66
4410;BME280;2218;51.408;7.208;2023-02-03T03:03:19;100465.25;;;18.59;44.54
4410;BME280;2218;51.408;7.208;2023-02-03T03:05:53;100476.63;;;18.59;44.31
4410;BME280;2218;51.408;7.208;2023-02-03T03:08:33;100500.28;;;18.61;44.60
4410;BME280;2218;51.408;7.208;2023-02-03T03:11:03;100522.09;;;18.63;44.07
4410;BME280;2218;51.408;7.208;2023-02-03T03:13:35;100538.72;;;18.64;44.27
4410;BME280;2218;51.408;7.208;2023-02-03T03:16:08;100512.41;;;18.64;44.46
4410;BME280;2218;51.408;7.208;2023-02-03T03:18:43;100524.63;;;18.65;44.21
4410;BME280;2218;51.408;7.208;2023-02-03T03:21:18;100520.25;;;18.65;44.26
4410;BME280;2218;51.408;7.208;2023-02-03T03:23:51;100498.25;;;18.66;44.21
4410;BME280;2218;51.408;7.208;2023-02-03T03:26:27;100508.78;;;18.66;44.28
4410;BME280;2218;51.408;7.208;2023-02-03T03:29:06;100504.34;;;18.67;44.41
4410;BME280;2218;51.408;7.208;2023-02-03T03:31:37;100508.69;;;18.68;44.16
4410;BME280;2218;51.408;7.208;2023-02-03T03:34:08;100515.66;;;18.69;44.10
4410;BME280;2218;51.408;7.208;2023-02-03T03:36:41;100504.28;;;18.68;44.17
4410;BME280;2218;51.408;7.208;2023-02-03T03:39:18;100511.25;;;18.69;44.40
4410;BME280;2218;51.408;7.208;2023-02-03T03:41:57;100505.13;;;18.69;44.13
4410;BME280;2218;51.408;7.208;2023-02-03T03:44:31;100503.34;;;18.69;44.28
4410;BME280;2218;51.408;7.208;2023-02-03T03:47:11;100512.13;;;18.70;44.20
4410;BME280;2218;51.408;7.208;2023-02-03T03:49:44;100521.78;;;18.69;43.95
4410;BME280;2218;51.408;7.208;2023-02-03T03:52:18;100497.19;;;18.70;44.32
4410;BME280;2218;51.408;7.208;2023-02-03T03:54:49;100500.66;;;18.71;44.35
4410;BME280;2218;51.408;7.208;2023-02-03T03:57:22;100506.88;;;18.70;44.06
4410;BME280;2218;51.408;7.208;2023-02-03T03:59:51;100502.44;;;18.70;44.04
4410;BME280;2218;51.408;7.208;2023-02-03T04:02:21;100519.09;;;18.71;44.11
4410;BME280;2218;51.408;7.208;2023-02-03T04:04:50;100504.13;;;18.71;44.51
4410;BME280;2218;51.408;7.208;2023-02-03T04:07:17;100501.50;;;18.71;44.38
4410;BME280;2218;51.408;7.208;2023-02-03T04:09:45;100505.84;;;18.72;44.22
4410;BME280;2218;51.408;7.208;2023-02-03T04:12:21;100506.78;;;18.71;44.29
4410;BME280;2218;51.408;7.208;2023-02-03T04:14:49;100504.13;;;18.71;44.21
4410;BME280;2218;51.408;7.208;2023-02-03T04:17:16;100506.69;;;18.73;44.01
4410;BME280;2218;51.408;7.208;2023-02-03T04:19:45;100498.88;;;18.71;44.26
4410;BME280;2218;51.408;7.208;2023-02-03T04:22:13;100497.00;;;18.73;44.12
4410;BME280;2218;51.408;7.208;2023-02-03T04:24:40;100500.47;;;18.74;43.97
4410;BME280;2218;51.408;7.208;2023-02-03T04:27:08;100496.16;;;18.73;44.14
4410;BME280;2218;51.408;7.208;2023-02-03T04:29:35;100497.84;;;18.74;44.48
4410;BME280;2218;51.408;7.208;2023-02-03T04:32:02;100497.84;;;18.74;44.26
4410;BME280;2218;51.408;7.208;2023-02-03T04:34:29;100512.78;;;18.73;44.15
4410;BME280;2218;51.408;7.208;2023-02-03T04:36:56;100491.72;;;18.73;44.09
4410;BME280;2218;51.408;7.208;2023-02-03T04:39:24;100496.16;;;18.73;44.37
4410;BME280;2218;51.408;7.208;2023-02-03T04:41:51;100487.31;;;18.74;43.96
4410;BME280;2218;51.408;7.208;2023-02-03T04:44:18;100496.06;;;18.74;44.12
4410;BME280;2218;51.408;7.208;2023-02-03T04:46:45;100488.16;;;18.74;44.01
4410;BME280;2218;51.408;7.208;2023-02-03T04:49:11;100486.47;;;18.73;44.15
4410;BME280;2218;51.408;7.208;2023-02-03T04:51:38;100478.56;;;18.73;43.97
4410;BME280;2218;51.408;7.208;2023-02-03T04:54:05;100470.66;;;18.73;44.31
4410;BME280;2218;51.408;7.208;2023-02-03T04:56:34;100475.94;;;18.73;44.24
4410;BME280;2218;51.408;7.208;2023-02-03T04:59:01;100461.81;;;18.74;44.03
4410;BME280;2218;51.408;7.208;2023-02-03T05:01:28;100466.25;;;18.74;43.97
4410;BME280;2218;51.408;7.208;2023-02-03T05:03:55;100462.75;;;18.73;44.07
4410;BME280;2218;51.408;7.208;2023-02-03T05:06:23;100463.59;;;18.74;44.00
4410;BME280;2218;51.408;7.208;2023-02-03T05:08:50;100475.00;;;18.74;44.21
4410;BME280;2218;51.408;7.208;2023-02-03T05:11:17;100474.13;;;18.74;44.12
4410;BME280;2218;51.408;7.208;2023-02-03T05:13:46;100475.00;;;18.74;43.98
4410;BME280;2218;51.408;7.208;2023-02-03T05:16:13;100467.97;;;18.75;44.07
4410;BME280;2218;51.408;7.208;2023-02-03T05:18:40;100463.53;;;18.75;44.04
4410;BME280;2218;51.408;7.208;2023-02-03T05:21:07;100456.41;;;18.77;43.99
4410;BME280;2218;51.408;7.208;2023-02-03T05:23:34;100463.34;;;18.78;44.01
4410;BME280;2218;51.408;7.208;2023-02-03T05:26:01;100474.66;;;18.80;43.83
4410;BME280;2218;51.408;7.208;2023-02-03T05:28:28;100461.41;;;18.82;43.91
4410;BME280;2218;51.408;7.208;2023-02-03T05:30:58;100473.53;;;18.84;43.67
4410;BME280;2218;51.408;7.208;2023-02-03T05:33:26;100466.41;;;18.87;43.54
4410;BME280;2218;51.408;7.208;2023-02-03T05:35:53;100475.91;;;18.89;43.88
4410;BME280;2218;51.408;7.208;2023-02-03T05:38:21;100470.59;;;18.91;43.72
4410;BME280;2218;51.408;7.208;2023-02-03T05:40:48;100472.38;;;18.90;43.42
4410;BME280;2218;51.408;7.208;2023-02-03T05:43:35;100459.13;;;18.92;43.56
4410;BME280;2218;51.408;7.208;2023-02-03T05:46:06;100464.38;;;18.92;43.71
4410;BME280;2218;51.408;7.208;2023-02-03T05:48:33;100445.84;;;18.93;43.76
4410;BME280;2218;51.408;7.208;2023-02-03T05:51:00;100457.22;;;18.94;43.73
4410;BME280;2218;51.408;7.208;2023-02-03T05:53:27;100462.50;;;18.94;43.53
4410;BME280;2218;51.408;7.208;2023-02-03T05:55:54;100467.75;;;18.94;43.24
4410;BME280;2218;51.408;7.208;2023-02-03T05:58:21;100471.34;;;18.93;43.51
4410;BME280;2218;51.408;7.208;2023-02-03T06:00:48;100468.72;;;18.93;43.32
4410;BME280;2218;51.408;7.208;2023-02-03T06:03:16;100463.44;;;18.93;43.32
4410;BME280;2218;51.408;7.208;2023-02-03T06:05:43;100471.34;;;18.93;43.46
4410;BME280;2218;51.408;7.208;2023-02-03T06:08:10;100450.28;;;18.93;43.17
4410;BME280;2218;51.408;7.208;2023-02-03T06:10:37;100475.75;;;18.92;43.37
4410;BME280;2218;51.408;7.208;2023-02-03T06:13:09;100483.66;;;18.92;43.37
4410;BME280;2218;51.408;7.208;2023-02-03T06:15:37;100469.66;;;18.92;43.52
4410;BME280;2218;51.408;7.208;2023-02-03T06:18:04;100477.56;;;18.92;43.38
4410;BME280;2218;51.408;7.208;2023-02-03T06:20:33;100467.97;;;18.91;43.38
4410;BME280;2218;51.408;7.208;2023-02-03T06:23:00;100466.25;;;18.90;43.37
4410;BME280;2218;51.408;7.208;2023-02-03T06:25:27;100478.50;;;18.91;43.36
4410;BME280;2218;51.408;7.208;2023-02-03T06:27:56;100467.97;;;18.91;43.26
4410;BME280;2218;51.408;7.208;2023-02-03T06:30:23;100467.13;;;18.90;43.32
4410;BME280;2218;51.408;7.208;2023-02-03T06:32:50;100474.16;;;18.90;43.48
4410;BME280;2218;51.408;7.208;2023-02-03T06:35:17;100473.22;;;18.91;43.50
4410;BME280;2218;51.408;7.208;2023-02-03T06:37:46;100469.66;;;18.92;43.20
4410;BME280;2218;51.408;7.208;2023-02-03T06:40:13;100478.50;;;18.91;43.17
4410;BME280;2218;51.408;7.208;2023-02-03T06:42:39;100473.22;;;18.91;43.23
4410;BME280;2218;51.408;7.208;2023-02-03T06:45:10;100468.91;;;18.90;43.37
4410;BME280;2218;51.408;7.208;2023-02-03T06:47:39;100470.59;;;18.91;43.44
4410;BME280;2218;51.408;7.208;2023-02-03T06:50:07;100477.66;;;18.90;43.21
4410;BME280;2218;51.408;7.208;2023-02-03T06:52:35;100480.28;;;18.90;43.21
4410;BME280;2218;51.408;7.208;2023-02-03T06:55:04;100491.66;;;18.91;43.59
4410;BME280;2218;51.408;7.208;2023-02-03T06:57:32;100478.50;;;18.91;43.21
4410;BME280;2218;51.408;7.208;2023-02-03T06:59:59;100478.50;;;18.91;43.22
4410;BME280;2218;51.408;7.208;2023-02-03T07:02:26;100471.53;;;18.90;43.15
4410;BME280;2218;51.408;7.208;2023-02-03T07:04:53;100483.75;;;18.91;43.21
4410;BME280;2218;51.408;7.208;2023-02-03T07:07:20;100478.50;;;18.91;43.31
4410;BME280;2218;51.408;7.208;2023-02-03T07:09:47;100489.88;;;18.91;43.18
4410;BME280;2218;51.408;7.208;2023-02-03T07:12:15;100489.03;;;18.91;43.15
4410;BME280;2218;51.408;7.208;2023-02-03T07:14:42;100497.78;;;18.91;43.39
4410;BME280;2218;51.408;7.208;2023-02-03T07:17:09;100489.88;;;18.91;43.52
4410;BME280;2218;51.408;7.208;2023-02-03T07:19:35;100489.03;;;18.91;43.39
4410;BME280;2218;51.408;7.208;2023-02-03T07:22:02;100489.03;;;18.91;43.06
4410;BME280;2218;51.408;7.208;2023-02-03T07:24:29;100481.13;;;18.91;43.37
4410;BME280;2218;51.408;7.208;2023-02-03T07:26:56;100483.75;;;18.91;43.31
4410;BME280;2218;51.408;7.208;2023-02-03T07:29:24;100491.56;;;18.92;43.28
4410;BME280;2218;51.408;7.208;2023-02-03T07:31:51;100492.50;;;18.91;43.40
4410;BME280;2218;51.408;7.208;2023-02-03T07:34:18;100477.56;;;18.92;43.05
4410;BME280;2218;51.408;7.208;2023-02-03T07:36:45;100480.19;;;18.92;43.34
4410;BME280;2218;51.408;7.208;2023-02-03T07:39:12;100486.31;;;18.92;43.10
4410;BME280;2218;51.408;7.208;2023-02-03T07:41:39;100484.50;;;18.93;43.38
4410;BME280;2218;51.408;7.208;2023-02-03T07:44:06;100466.06;;;18.93;43.39
4410;BME280;2218;51.408;7.208;2023-02-03T07:46:35;100474.91;;;18.92;43.08
4410;BME280;2218;51.408;7.208;2023-02-03T07:49:04;100488.94;;;18.92;43.27
4410;BME280;2218;51.408;7.208;2023-02-03T07:51:31;100486.22;;;18.94;43.28
4410;BME280;2218;51.408;7.208;2023-02-03T07:53:58;100495.91;;;18.93;43.28
4410;BME280;2218;51.408;7.208;2023-02-03T07:56:25;100477.47;;;18.93;43.15
4410;BME280;2218;51.408;7.208;2023-02-03T07:58:52;100460.81;;;18.93;43.17
4410;BME280;2218;51.408;7.208;2023-02-03T08:01:19;100478.31;;;18.94;43.41
4410;BME280;2218;51.408;7.208;2023-02-03T08:03:47;100479.25;;;18.93;43.59
4410;BME280;2218;51.408;7.208;2023-02-03T08:06:14;100475.66;;;18.94;43.34
4410;BME280;2218;51.408;7.208;2023-02-03T08:08:41;100461.66;;;18.93;43.20
4410;BME280;2218;51.408;7.208;2023-02-03T08:11:08;100488.84;;;18.94;43.38
4410;BME280;2218;51.408;7.208;2023-02-03T08:13:35;100502.00;;;18.94;43.60
4410;BME280;2218;51.408;7.208;2023-02-03T08:16:03;100492.41;;;18.93;43.34
4410;BME280;2218;51.408;7.208;2023-02-03T08:18:30;100504.66;;;18.94;43.42
4410;BME280;2218;51.408;7.208;2023-02-03T08:20:58;100513.41;;;18.94;43.28
4410;BME280;2218;51.408;7.208;2023-02-03T08:23:28;100520.44;;;18.94;43.27
4410;BME280;2218;51.408;7.208;2023-02-03T08:25:55;100502.94;;;18.93;43.28
4410;BME280;2218;51.408;7.208;2023-02-03T08:28:22;100509.91;;;18.94;43.65
4410;BME280;2218;51.408;7.208;2023-02-03T08:30:49;100512.53;;;18.94;43.66
4410;BME280;2218;51.408;7.208;2023-02-03T08:33:16;100512.53;;;18.94;43.32
4410;BME280;2218;51.408;7.208;2023-02-03T08:35:45;100515.19;;;18.94;43.71
4410;BME280;2218;51.408;7.208;2023-02-03T08:38:14;100502.00;;;18.94;43.38
4410;BME280;2218;51.408;7.208;2023-02-03T08:40:41;100495.91;;;18.93;43.53
4410;BME280;2218;51.408;7.208;2023-02-03T08:43:08;100502.00;;;18.94;43.40
4410;BME280;2218;51.408;7.208;2023-02-03T08:45:36;100502.00;;;18.94;43.45
4410;BME280;2218;51.408;7.208;2023-02-03T08:48:03;100499.38;;;18.94;43.29
4410;BME280;2218;51.408;7.208;2023-02-03T08:50:30;100511.69;;;18.93;43.34
4410;BME280;2218;51.408;7.208;2023-02-03T08:52:57;100512.53;;;18.94;43.41
4410;BME280;2218;51.408;7.208;2023-02-03T08:55:25;100504.66;;;18.94;43.57
4410;BME280;2218;51.408;7.208;2023-02-03T08:57:52;100504.66;;;18.94;43.74
4410;BME280;2218;51.408;7.208;2023-02-03T09:00:20;100510.75;;;18.94;43.79
4410;BME280;2218;51.408;7.208;2023-02-03T09:02:47;100504.66;;;18.94;43.38
4410;BME280;2218;51.408;7.208;2023-02-03T09:05:14;100511.63;;;18.95;43.47
4410;BME280;2218;51.408;7.208;2023-02-03T09:07:43;100520.44;;;18.94;43.67
4410;BME280;2218;51.408;7.208;2023-02-03T09:10:10;100512.53;;;18.94;43.33
4410;BME280;2218;51.408;7.208;2023-02-03T09:12:38;100520.44;;;18.94;43.38
4410;BME280;2218;51.408;7.208;2023-02-03T09:15:06;100516.03;;;18.94;43.72
4410;BME280;2218;51.408;7.208;2023-02-03T09:17:33;100516.03;;;18.94;43.43
4410;BME280;2218;51.408;7.208;2023-02-03T09:20:01;100509.91;;;18.94;44.09
4410;BME280;2218;51.408;7.208;2023-02-03T09:22:28;100528.28;;;18.95;43.67
4410;BME280;2218;51.408;7.208;2023-02-03T09:24:55;100537.88;;;18.96;43.34
4410;BME280;2218;51.408;7.208;2023-02-03T09:27:22;100535.25;;;18.96;43.44
4410;BME280;2218;51.408;7.208;2023-02-03T09:29:50;100534.41;;;18.96;43.58
4410;BME280;2218;51.408;7.208;2023-02-03T09:32:17;100534.41;;;18.96;43.67
4410;BME280;2218;51.408;7.208;2023-02-03T09:34:44;100536.09;;;18.97;43.35
4410;BME280;2218;51.408;7.208;2023-02-03T09:37:11;100533.47;;;18.97;43.88
4410;BME280;2218;51.408;7.208;2023-02-03T09:39:38;100531.69;;;18.97;43.74
4410;BME280;2218;51.408;7.208;2023-02-03T09:42:27;100536.09;;;18.97;43.93
4410;BME280;2218;51.408;7.208;2023-02-03T09:45:12;100528.19;;;18.97;43.71
4410;BME280;2218;51.408;7.208;2023-02-03T09:47:43;100525.56;;;18.97;43.50
4410;BME280;2218;51.408;7.208;2023-02-03T09:50:13;100518.59;;;18.96;43.55
4410;BME280;2218;51.408;7.208;2023-02-03T09:52:46;100521.13;;;18.97;43.71
4410;BME280;2218;51.408;7.208;2023-02-03T09:55:25;100526.41;;;18.97;43.87
4410;BME280;2218;51.408;7.208;2023-02-03T09:58:02;100521.97;;;18.98;43.86
4410;BME280;2218;51.408;7.208;2023-02-03T10:00:36;100521.97;;;18.98;43.55
4410;BME280;2218;51.408;7.208;2023-02-03T10:03:15;100521.03;;;18.99;43.74
4410;BME280;2218;51.408;7.208;2023-02-03T10:06:13;100516.72;;;18.98;43.66
4410;BME280;2218;51.408;7.208;2023-02-03T10:09:03;100518.41;;;18.99;43.61
4410;BME280;2218;51.408;7.208;2023-02-03T10:11:55;100523.69;;;18.99;43.23
4410;BME280;2218;51.408;7.208;2023-02-03T10:14:46;100522.84;;;18.98;43.46
4410;BME280;2218;51.408;7.208;2023-02-03T10:17:29;100528.94;;;18.99;43.44
4410;BME280;2218;51.408;7.208;2023-02-03T10:20:04;100538.63;;;18.98;43.26
4410;BME280;2218;51.408;7.208;2023-02-03T10:22:39;100539.47;;;18.99;43.64
4410;BME280;2218;51.408;7.208;2023-02-03T10:25:16;100539.47;;;18.99;43.53
4410;BME280;2218;51.408;7.208;2023-02-03T10:27:46;100529.78;;;18.99;43.42
4410;BME280;2218;51.408;7.208;2023-02-03T10:30:20;100534.22;;;18.99;43.55
4410;BME280;2218;51.408;7.208;2023-02-03T10:32:53;100538.56;;;19.00;43.50
4410;BME280;2218;51.408;7.208;2023-02-03T10:35:26;100547.38;;;18.99;43.69
4410;BME280;2218;51.408;7.208;2023-02-03T10:37:58;100553.44;;;19.01;43.75
4410;BME280;2218;51.408;7.208;2023-02-03T10:40:26;100564.91;;;19.00;43.40
4410;BME280;2218;51.408;7.208;2023-02-03T10:42:54;100546.47;;;19.00;43.73
4410;BME280;2218;51.408;7.208;2023-02-03T10:45:39;100543.84;;;19.00;43.73
4410;BME280;2218;51.408;7.208;2023-02-03T10:48:15;100546.47;;;19.00;43.81
4410;BME280;2218;51.408;7.208;2023-02-03T10:50:47;100546.47;;;19.00;43.61
4410;BME280;2218;51.408;7.208;2023-02-03T10:53:23;100537.69;;;18.99;43.55
4410;BME280;2218;51.408;7.208;2023-02-03T10:56:01;100536.78;;;19.00;43.71
4410;BME280;2218;51.408;7.208;2023-02-03T10:58:32;100542.06;;;19.00;43.47
4410;BME280;2218;51.408;7.208;2023-02-03T11:01:09;100531.53;;;19.00;43.44
4410;BME280;2218;51.408;7.208;2023-02-03T11:03:40;100532.38;;;19.01;43.68
4410;BME280;2218;51.408;7.208;2023-02-03T11:06:12;100532.38;;;19.01;43.81
4410;BME280;2218;51.408;7.208;2023-02-03T11:08:42;100543.84;;;19.00;43.14
4410;BME280;2218;51.408;7.208;2023-02-03T11:11:14;100537.63;;;19.01;43.84
4410;BME280;2218;51.408;7.208;2023-02-03T11:13:41;100534.06;;;19.02;43.73
4410;BME280;2218;51.408;7.208;2023-02-03T11:16:13;100549.88;;;19.02;43.21
4410;BME280;2218;51.408;7.208;2023-02-03T11:18:53;100547.22;;;19.02;43.62
4410;BME280;2218;51.408;7.208;2023-02-03T11:21:24;100550.72;;;19.02;43.66
4410;BME280;2218;51.408;7.208;2023-02-03T11:24:03;100549.03;;;19.01;43.76
4410;BME280;2218;51.408;7.208;2023-02-03T11:26:36;100561.25;;;19.02;43.44
4410;BME280;2218;51.408;7.208;2023-02-03T11:29:12;100552.50;;;19.02;43.62
4410;BME280;2218;51.408;7.208;2023-02-03T11:31:48;100566.53;;;19.02;43.67
4410;BME280;2218;51.408;7.208;2023-02-03T11:34:20;100567.38;;;19.03;43.76
4410;BME280;2218;51.408;7.208;2023-02-03T11:36:50;100568.22;;;19.03;43.83
4410;BME280;2218;51.408;7.208;2023-02-03T11:39:26;100573.47;;;19.03;43.51
4410;BME280;2218;51.408;7.208;2023-02-03T11:41:54;100565.56;;;19.03;43.85
4410;BME280;2218;51.408;7.208;2023-02-03T11:44:24;100562.09;;;19.03;43.51
4410;BME280;2218;51.408;7.208;2023-02-03T11:46:58;100562.09;;;19.03;43.69
4410;BME280;2218;51.408;7.208;2023-02-03T11:50:02;100562.09;;;19.03;43.76
4410;BME280;2218;51.408;7.208;2023-02-03T11:53:02;100546.28;;;19.03;43.68
4410;BME280;2218;51.408;7.208;2023-02-03T11:55:47;100553.25;;;19.04;43.62
4410;BME280;2218;51.408;7.208;2023-02-03T11:59:02;100562.94;;;19.03;44.28
4410;BME280;2218;51.408;7.208;2023-02-03T12:02:04;100549.78;;;19.03;43.67
4410;BME280;2218;51.408;7.208;2023-02-03T12:05:09;100556.66;;;19.06;43.59
4410;BME280;2218;51.408;7.208;2023-02-03T12:08:06;100555.88;;;19.04;43.75
4410;BME280;2218;51.408;7.208;2023-02-03T12:10:46;100554.97;;;19.05;43.65
4410;BME280;2218;51.408;7.208;2023-02-03T12:13:43;100548.84;;;19.04;43.87
4410;BME280;2218;51.408;7.208;2023-02-03T12:19:44;100555.88;;;19.04;43.88
4410;BME280;2218;51.408;7.208;2023-02-03T12:22:24;100565.50;;;19.05;43.81
4410;BME280;2218;51.408;7.208;2023-02-03T12:25:03;100561.94;;;19.06;43.46
4410;BME280;2218;51.408;7.208;2023-02-03T12:27:44;100569.84;;;19.06;43.54
4410;BME280;2218;51.408;7.208;2023-02-03T12:30:21;100556.72;;;19.04;43.54
4410;BME280;2218;51.408;7.208;2023-02-03T12:32:54;100581.22;;;19.06;43.88
4410;BME280;2218;51.408;7.208;2023-02-03T12:35:29;100576.06;;;19.05;44.02
4410;BME280;2218;51.408;7.208;2023-02-03T12:38:06;100571.63;;;19.05;44.09
4410;BME280;2218;51.408;7.208;2023-02-03T12:40:41;100561.09;;;19.05;43.90
4410;BME280;2218;51.408;7.208;2023-02-03T12:43:24;100559.31;;;19.06;43.71
4410;BME280;2218;51.408;7.208;2023-02-03T12:46:00;100562.78;;;19.06;43.92
4410;BME280;2218;51.408;7.208;2023-02-03T12:48:41;100568.91;;;19.07;43.92
4410;BME280;2218;51.408;7.208;2023-02-03T12:51:16;100572.47;;;19.06;44.03
4410;BME280;2218;51.408;7.208;2023-02-03T12:53:55;100573.31;;;19.06;44.02
4410;BME280;2218;51.408;7.208;2023-02-03T12:56:30;100579.44;;;19.07;44.01
4410;BME280;2218;51.408;7.208;2023-02-03T12:59:05;100581.13;;;19.08;44.16
4410;BME280;2218;51.408;7.208;2023-02-03T13:01:44;100574.19;;;19.07;44.43
4410;BME280;2218;51.408;7.208;2023-02-03T13:04:22;100564.38;;;19.09;43.82
4410;BME280;2218;51.408;7.208;2023-02-03T13:06:59;100567.03;;;19.09;43.79
4410;BME280;2218;51.408;7.208;2023-02-03T13:09:37;100572.28;;;19.09;44.22
4410;BME280;2218;51.408;7.208;2023-02-03T13:12:11;100567.91;;;19.09;43.94
4410;BME280;2218;51.408;7.208;2023-02-03T13:14:45;100572.22;;;19.10;43.71
4410;BME280;2218;51.408;7.208;2023-02-03T13:17:21;100562.63;;;19.09;44.04
4410;BME280;2218;51.408;7.208;2023-02-03T13:19:55;100571.38;;;19.10;43.91
4410;BME280;2218;51.408;7.208;2023-02-03T13:22:24;100565.16;;;19.11;43.95
4410;BME280;2218;51.408;7.208;2023-02-03T13:24:59;100563.47;;;19.10;43.69
4410;BME280;2218;51.408;7.208;2023-02-03T13:27:44;100559.91;;;19.11;43.71
4410;BME280;2218;51.408;7.208;2023-02-03T13:30:44;100559.91;;;19.11;43.91
4410;BME280;2218;51.408;7.208;2023-02-03T13:33:56;100559.91;;;19.11;43.86
4410;BME280;2218;51.408;7.208;2023-02-03T13:40:01;100561.59;;;19.12;43.86
4410;BME280;2218;51.408;7.208;2023-02-03T13:42:33;100555.47;;;19.11;43.80
4410;BME280;2218;51.408;7.208;2023-02-03T13:45:14;100554.63;;;19.11;43.69
4410;BME280;2218;51.408;7.208;2023-02-03T13:47:48;100548.41;;;19.12;43.60